Time;durP1;ratioP1;P1;durP2;ratioP2;P2;SDS_P1;SDS_P2;PMS_P1;PMS_P2;Temp;Humidity;BMP_temperature;BMP_pressure;BME280_temperature;BME280_humidity;BME280_pressure;Samples;Min_cycle;Max_cycle;Signal;HPM_P1;HPM_P2
2021/07/19 00:00:06;;;;;;;13.38;6.90;;;;;;;;;;10318955;28;20091;-66
2021/07/19 00:05:05;;;;;;;8.13;6.40;;;;;;;;;;10317877;28;20052;-67
2021/07/19 00:10:07;;;;;;;19.70;6.78;;;;;;;;;;10319438;28;20044;-67
2021/07/19 00:15:06;;;;;;;11.55;6.85;;;;;;;;;;10318428;28;20059;-67
2021/07/19 00:20:05;;;;;;;12.52;6.63;;;;;;;;;;10319274;28;20072;-66
2021/07/19 00:25:09;;;;;;;9.60;6.20;;;;;;;;;;10319080;28;20548;-67
2021/07/19 00:30:10;;;;;;;16.45;6.53;;;;;;;;;;10318761;28;20045;-66
2021/07/19 00:35:08;;;;;;;10.90;6.47;;;;;;;;;;10317495;28;20056;-67
2021/07/19 00:40:12;;;;;;;10.98;6.95;;;;;;;;;;10318312;28;20068;-67
2021/07/19 00:45:11;;;;;;;11.18;6.72;;;;;;;;;;10316248;28;20049;-67
2021/07/19 00:50:10;;;;;;;7.25;6.15;;;;;;;;;;10317933;28;20505;-66
2021/07/19 00:55:14;;;;;;;18.23;6.88;;;;;;;;;;10315868;28;20051;-66
2021/07/19 01:00:14;;;;;;;17.63;6.77;;;;;;;;;;10315668;28;20501;-66
2021/07/19 01:05:13;;;;;;;13.02;7.03;;;;;;;;;;10315202;28;20055;-67
2021/07/19 01:10:16;;;;;;;8.95;6.43;;;;;;;;;;10317264;28;20509;-66
2021/07/19 01:15:18;;;;;;;12.88;6.32;;;;;;;;;;10315414;28;20047;-66
2021/07/19 01:20:17;;;;;;;13.77;7.18;;;;;;;;;;10315203;28;20044;-66
2021/07/19 01:25:26;;;;;;;13.60;7.03;;;;;;;;;;10316282;28;20048;-66
2021/07/19 01:30:27;;;;;;;9.70;7.18;;;;;;;;;;10316586;28;20461;-66
2021/07/19 01:35:27;;;;;;;10.70;7.78;;;;;;;;;;10235203;28;20076;-67
2021/07/19 01:40:25;;;;;;;8.93;7.30;;;;;;;;;;10233290;28;20541;-66
2021/07/19 01:45:27;;;;;;;13.63;7.57;;;;;;;;;;10234550;28;20042;-66
2021/07/19 01:50:29;;;;;;;15.38;7.03;;;;;;;;;;10233280;28;20502;-66
2021/07/19 01:55:56;;;;;;;13.98;7.03;;;;;;;;;;10244119;28;20084;-66
2021/07/19 02:00:58;;;;;;;13.85;7.38;;;;;;;;;;10233165;28;20111;-67
2021/07/19 02:06:03;;;;;;;15.18;7.32;;;;;;;;;;10232668;28;20058;-66
2021/07/19 02:11:04;;;;;;;8.80;6.75;;;;;;;;;;10234064;28;20044;-66
2021/07/19 02:16:06;;;;;;;11.98;7.65;;;;;;;;;;10238326;28;20041;-63
2021/07/19 02:21:06;;;;;;;12.10;8.70;;;;;;;;;;10240545;28;20092;-63
2021/07/19 02:26:14;;;;;;;14.93;7.93;;;;;;;;;;10240452;28;20061;-63
2021/07/19 02:31:15;;;;;;;10.20;8.05;;;;;;;;;;10251949;28;20045;-63
2021/07/19 02:36:15;;;;;;;11.98;7.88;;;;;;;;;;10322563;28;20036;-63
2021/07/19 02:41:17;;;;;;;8.23;7.38;;;;;;;;;;10320741;28;20059;-63
2021/07/19 02:46:19;;;;;;;12.02;7.18;;;;;;;;;;10320864;28;20053;-62
2021/07/19 02:51:21;;;;;;;10.90;8.50;;;;;;;;;;10322254;28;20045;-62
2021/07/19 02:56:22;;;;;;;15.43;8.30;;;;;;;;;;10321772;28;20391;-62
2021/07/19 03:01:24;;;;;;;10.48;7.75;;;;;;;;;;10322079;28;20476;-63
2021/07/19 03:06:28;;;;;;;14.85;7.88;;;;;;;;;;10334549;28;20044;-63
2021/07/19 03:11:30;;;;;;;19.55;9.40;;;;;;;;;;10337343;28;20051;-63
2021/07/19 03:16:31;;;;;;;10.43;8.00;;;;;;;;;;10344137;28;20072;-63
2021/07/19 03:21:30;;;;;;;12.38;8.23;;;;;;;;;;10346275;28;20058;-63
2021/07/19 03:26:42;;;;;;;11.82;8.40;;;;;;;;;;10332526;28;20071;-62
2021/07/19 03:31:41;;;;;;;;;;;;;;;;;;10337627;28;20082;-63
2021/07/19 03:36:42;;;;;;;13.70;8.75;;;;;;;;;;10341672;28;19955;-62
2021/07/19 03:41:43;;;;;;;20.48;8.75;;;;;;;;;;10357605;28;20072;-63
2021/07/19 03:46:42;;;;;;;12.00;9.70;;;;;;;;;;10360037;28;20040;-63
2021/07/19 03:51:43;;;;;;;14.27;9.95;;;;;;;;;;10359489;28;20048;-62
2021/07/19 03:56:42;;;;;;;16.85;10.32;;;;;;;;;;10359220;28;20052;-62
2021/07/19 04:01:43;;;;;;;14.05;10.25;;;;;;;;;;10358920;28;20074;-63
2021/07/19 04:06:44;;;;;;;19.88;10.32;;;;;;;;;;10360555;28;20079;-63
2021/07/19 04:11:45;;;;;;;13.43;10.57;;;;;;;;;;10360449;28;20055;-63
2021/07/19 04:16:46;;;;;;;16.13;12.00;;;;;;;;;;10358418;28;20048;-63
2021/07/19 04:21:48;;;;;;;19.77;11.68;;;;;;;;;;10358131;28;20089;-63
2021/07/19 04:26:55;;;;;;;16.67;10.18;;;;;;;;;;10358020;28;20550;-64
2021/07/19 04:31:54;;;;;;;29.50;20.35;;;;;;;;;;10359185;28;20519;-63
2021/07/19 04:37:01;;;;;;;17.08;11.75;;;;;;;;;;10355309;28;20060;-63
2021/07/19 04:42:03;;;;;;;14.40;11.35;;;;;;;;;;10355074;28;20091;-63
2021/07/19 04:47:04;;;;;;;27.27;12.75;;;;;;;;;;10353885;28;20047;-63
2021/07/19 04:52:04;;;;;;;16.52;12.00;;;;;;;;;;10356623;28;20054;-62
2021/07/19 04:57:03;;;;;;;18.20;11.50;;;;;;;;;;10358792;28;20040;-62
2021/07/19 05:02:03;;;;;;;17.88;13.32;;;;;;;;;;10357968;28;20565;-62
2021/07/19 05:07:02;;;;;;;17.25;11.95;;;;;;;;;;10358040;28;20404;-63
2021/07/19 05:12:03;;;;;;;17.02;11.10;;;;;;;;;;10358565;28;20055;-63
2021/07/19 05:17:02;;;;;;;19.92;12.88;;;;;;;;;;10358360;28;20047;-63
2021/07/19 05:22:01;;;;;;;22.33;12.43;;;;;;;;;;10356592;28;20048;-63
2021/07/19 05:27:03;;;;;;;15.55;12.30;;;;;;;;;;10355899;28;20075;-63
2021/07/19 05:32:02;;;;;;;17.38;11.90;;;;;;;;;;10357057;28;20052;-63
2021/07/19 05:37:01;;;;;;;20.02;12.02;;;;;;;;;;10357425;28;20285;-63
2021/07/19 05:42:01;;;;;;;20.42;12.98;;;;;;;;;;10355692;28;20048;-63
2021/07/19 05:47:01;;;;;;;17.95;12.75;;;;;;;;;;10356969;28;20047;-63
2021/07/19 05:52:00;;;;;;;15.88;12.35;;;;;;;;;;10365168;28;20044;-63
2021/07/19 05:56:59;;;;;;;21.20;12.38;;;;;;;;;;10365468;28;20044;-63
2021/07/19 06:01:58;;;;;;;22.27;12.63;;;;;;;;;;10365212;28;20078;-63
2021/07/19 06:06:58;;;;;;;23.88;13.02;;;;;;;;;;10364737;28;20055;-63
2021/07/19 06:11:57;;;;;;;17.52;12.48;;;;;;;;;;10364392;28;20068;-64
2021/07/19 06:16:55;;;;;;;15.48;13.35;;;;;;;;;;10364907;28;20075;-63
2021/07/19 06:21:53;;;;;;;21.08;13.40;;;;;;;;;;10364499;28;20075;-63
2021/07/19 06:26:53;;;;;;;18.77;12.45;;;;;;;;;;10364469;28;20048;-63
2021/07/19 06:31:51;;;;;;;17.55;13.43;;;;;;;;;;10363501;28;20051;-63
2021/07/19 06:36:50;;;;;;;20.05;13.52;;;;;;;;;;10363697;28;20040;-64
2021/07/19 06:41:48;;;;;;;17.98;14.05;;;;;;;;;;10363411;28;20044;-64
2021/07/19 06:46:48;;;;;;;15.15;13.52;;;;;;;;;;10363455;28;20048;-63
2021/07/19 06:51:46;;;;;;;21.35;13.95;;;;;;;;;;10363285;28;20048;-64
2021/07/19 06:56:45;;;;;;;19.20;12.80;;;;;;;;;;10363400;28;20040;-63
2021/07/19 07:01:43;;;;;;;12.93;11.73;;;;;;;;;;10362185;28;20067;-63
2021/07/19 07:06:43;;;;;;;16.58;12.10;;;;;;;;;;10362939;28;20059;-64
2021/07/19 07:11:42;;;;;;;16.92;11.27;;;;;;;;;;10362484;28;20040;-64
2021/07/19 07:16:40;;;;;;;14.45;11.85;;;;;;;;;;10362802;28;20051;-64
2021/07/19 07:21:39;;;;;;;19.00;10.80;;;;;;;;;;10362277;28;20079;-64
2021/07/19 07:26:39;;;;;;;11.40;10.30;;;;;;;;;;10361764;28;20055;-64
2021/07/19 07:31:37;;;;;;;13.30;10.85;;;;;;;;;;10361522;28;20538;-64
2021/07/19 07:36:36;;;;;;;12.18;11.10;;;;;;;;;;10361474;28;20036;-64
2021/07/19 07:41:34;;;;;;;12.48;11.18;;;;;;;;;;10361209;28;20504;-64
2021/07/19 07:46:34;;;;;;;12.35;11.15;;;;;;;;;;10361405;28;20086;-64
2021/07/19 07:51:32;;;;;;;13.93;10.90;;;;;;;;;;10360799;28;20401;-64
2021/07/19 07:56:30;;;;;;;16.08;11.60;;;;;;;;;;10360703;28;20040;-64
2021/07/19 08:01:48;;;;;;;14.63;11.52;;;;;;;;;;10361157;28;20535;-64
2021/07/19 08:06:46;;;;;;;16.42;11.18;;;;;;;;;;10360093;28;20599;-64
2021/07/19 08:11:45;;;;;;;14.88;10.77;;;;;;;;;;10359145;28;20036;-63
2021/07/19 08:16:43;;;;;;;12.05;10.73;;;;;;;;;;10359991;28;20110;-64
2021/07/19 08:21:43;;;;;;;17.05;11.70;;;;;;;;;;10359934;28;20082;-64
2021/07/19 08:26:42;;;;;;;13.35;11.15;;;;;;;;;;10359980;28;20044;-64
2021/07/19 08:31:44;;;;;;;12.52;10.07;;;;;;;;;;10359592;28;20040;-64
2021/07/19 08:36:44;;;;;;;14.87;11.73;;;;;;;;;;10359818;28;20075;-64
2021/07/19 08:41:42;;;;;;;13.45;10.55;;;;;;;;;;10359459;28;20075;-64
2021/07/19 08:46:40;;;;;;;11.35;9.43;;;;;;;;;;10358975;28;20067;-64
2021/07/19 08:51:39;;;;;;;16.50;11.10;;;;;;;;;;10359241;28;20079;-64
2021/07/19 08:56:40;;;;;;;12.68;10.50;;;;;;;;;;10358963;28;20492;-64
2021/07/19 09:01:40;;;;;;;14.43;11.82;;;;;;;;;;10358469;28;20079;-64
2021/07/19 09:06:40;;;;;;;18.75;11.63;;;;;;;;;;10358330;28;20035;-64
2021/07/19 09:11:49;;;;;;;20.48;13.63;;;;;;;;;;10358055;28;20051;-64
2021/07/19 09:16:48;;;;;;;14.05;11.63;;;;;;;;;;10358157;28;20044;-64
2021/07/19 09:21:47;;;;;;;16.70;11.35;;;;;;;;;;10357998;28;20090;-64
2021/07/19 09:26:52;;;;;;;15.80;12.27;;;;;;;;;;10357776;28;20397;-64
2021/07/19 09:31:52;;;;;;;14.85;13.18;;;;;;;;;;10356724;28;20060;-64
2021/07/19 09:36:55;;;;;;;14.07;11.80;;;;;;;;;;10356884;28;20056;-64
2021/07/19 09:42:05;;;;;;;14.40;12.83;;;;;;;;;;10357465;28;20084;-63
2021/07/19 09:47:05;;;;;;;13.77;11.77;;;;;;;;;;10357377;28;20068;-64
2021/07/19 09:52:05;;;;;;;12.82;10.60;;;;;;;;;;10357907;28;20092;-64
2021/07/19 09:57:06;;;;;;;11.95;10.82;;;;;;;;;;10356358;28;20048;-64
2021/07/19 10:02:07;;;;;;;10.88;9.73;;;;;;;;;;10357618;28;20086;-64
2021/07/19 10:07:05;;;;;;;12.50;9.60;;;;;;;;;;10357668;28;20055;-64
2021/07/19 10:12:15;;;;;;;15.80;9.70;;;;;;;;;;10356815;28;20420;-64
2021/07/19 10:17:13;;;;;;;9.65;8.82;;;;;;;;;;10355691;28;20040;-64
2021/07/19 10:22:12;;;;;;;11.35;10.13;;;;;;;;;;10356855;28;20520;-64
2021/07/19 10:27:13;;;;;;;14.57;9.95;;;;;;;;;;10357055;28;20048;-64
2021/07/19 10:32:12;;;;;;;15.43;9.48;;;;;;;;;;10355883;28;20048;-64
2021/07/19 10:37:13;;;;;;;11.10;8.43;;;;;;;;;;10360699;28;20051;-64
2021/07/19 10:42:13;;;;;;;9.50;7.65;;;;;;;;;;10364327;28;20090;-64
2021/07/19 10:47:12;;;;;;;8.60;7.80;;;;;;;;;;10363790;28;20052;-64
2021/07/19 10:52:12;;;;;;;11.85;8.43;;;;;;;;;;10363528;28;20512;-64
2021/07/19 10:57:10;;;;;;;12.60;7.88;;;;;;;;;;10362863;28;20508;-64
2021/07/19 11:02:10;;;;;;;11.23;7.25;;;;;;;;;;10363172;28;20084;-64
2021/07/19 11:07:11;;;;;;;13.98;6.88;;;;;;;;;;10362974;28;20409;-64
2021/07/19 11:12:12;;;;;;;16.48;9.38;;;;;;;;;;10362840;28;20076;-64
2021/07/19 11:17:11;;;;;;;10.35;8.75;;;;;;;;;;10363270;28;20055;-64
2021/07/19 11:22:11;;;;;;;14.70;9.63;;;;;;;;;;10362306;28;20082;-64
2021/07/19 11:27:09;;;;;;;14.30;9.68;;;;;;;;;;10362211;28;20047;-64
2021/07/19 11:32:10;;;;;;;12.82;9.75;;;;;;;;;;10361387;28;20056;-64
2021/07/19 11:37:10;;;;;;;17.08;9.23;;;;;;;;;;10362520;28;20086;-64
2021/07/19 11:42:10;;;;;;;9.88;8.70;;;;;;;;;;10360137;28;20528;-64
2021/07/19 11:47:09;;;;;;;14.38;10.45;;;;;;;;;;10361442;28;20052;-64
2021/07/19 11:52:09;;;;;;;15.68;10.60;;;;;;;;;;10361221;28;20040;-64
2021/07/19 11:57:09;;;;;;;16.02;10.23;;;;;;;;;;10359577;28;20557;-64
2021/07/19 12:02:08;;;;;;;15.68;13.45;;;;;;;;;;10361042;28;20075;-62
2021/07/19 12:07:07;;;;;;;18.15;10.05;;;;;;;;;;10360795;28;20044;-63
2021/07/19 12:12:06;;;;;;;13.90;9.93;;;;;;;;;;10360539;28;20489;-63
2021/07/19 12:17:08;;;;;;;13.30;9.85;;;;;;;;;;10360267;28;20043;-63
2021/07/19 12:22:06;;;;;;;12.70;10.32;;;;;;;;;;10359478;28;20048;-63
2021/07/19 12:27:05;;;;;;;9.90;8.90;;;;;;;;;;10359925;28;20051;-63
2021/07/19 12:32:04;;;;;;;10.88;9.25;;;;;;;;;;10359283;28;20080;-63
2021/07/19 12:37:05;;;;;;;16.00;10.88;;;;;;;;;;10359781;28;20236;-63
2021/07/19 12:42:06;;;;;;;10.77;8.68;;;;;;;;;;10359618;28;20079;-63
2021/07/19 12:47:05;;;;;;;13.60;8.70;;;;;;;;;;10359087;28;20409;-63
2021/07/19 12:52:06;;;;;;;16.80;11.05;;;;;;;;;;10358910;28;20048;-64
2021/07/19 12:57:24;;;;;;;9.75;8.75;;;;;;;;;;10358473;28;20056;-63
2021/07/19 13:02:24;;;;;;;10.93;8.05;;;;;;;;;;10358983;28;20086;-64
2021/07/19 13:07:27;;;;;;;13.55;8.45;;;;;;;;;;10358512;28;20499;-63
2021/07/19 13:12:26;;;;;;;9.75;8.05;;;;;;;;;;10358778;28;20048;-64
2021/07/19 13:17:26;;;;;;;11.60;6.97;;;;;;;;;;10358786;28;20044;-64
2021/07/19 13:22:27;;;;;;;8.48;7.43;;;;;;;;;;10357885;28;20528;-63
2021/07/19 13:27:30;;;;;;;11.30;8.82;;;;;;;;;;10357933;28;20059;-63
2021/07/19 13:32:29;;;;;;;10.40;7.15;;;;;;;;;;10357849;28;20056;-64
2021/07/19 13:37:29;;;;;;;7.55;6.78;;;;;;;;;;10356725;28;20048;-64
2021/07/19 13:42:34;;;;;;;8.80;6.90;;;;;;;;;;10357625;28;20086;-64
2021/07/19 13:47:32;;;;;;;15.75;9.48;;;;;;;;;;10356877;28;20047;-63
2021/07/19 13:52:32;;;;;;;9.10;7.95;;;;;;;;;;10357166;28;20044;-64
2021/07/19 13:57:30;;;;;;;12.57;8.35;;;;;;;;;;10357174;28;20075;-64
2021/07/19 14:02:31;;;;;;;13.93;7.47;;;;;;;;;;10357051;28;20082;-64
2021/07/19 14:07:29;;;;;;;10.00;6.53;;;;;;;;;;10356917;28;20044;-64
2021/07/19 14:12:29;;;;;;;9.20;6.75;;;;;;;;;;10363507;28;20047;-64
2021/07/19 14:17:27;;;;;;;9.57;6.63;;;;;;;;;;10365114;28;20079;-64
2021/07/19 14:22:25;;;;;;;15.10;7.35;;;;;;;;;;10364687;28;20087;-63
2021/07/19 14:27:23;;;;;;;9.18;6.15;;;;;;;;;;10364619;28;20036;-64
2021/07/19 14:32:23;;;;;;;11.55;7.13;;;;;;;;;;10342852;28;20146;-62
2021/07/19 14:37:21;;;;;;;16.77;6.85;;;;;;;;;;10336976;28;20071;-63
2021/07/19 14:42:22;;;;;;;11.27;6.05;;;;;;;;;;10344199;28;20464;-64
2021/07/19 14:47:20;;;;;;;7.80;6.43;;;;;;;;;;10338157;28;20044;-63
2021/07/19 14:52:22;;;;;;;10.75;6.13;;;;;;;;;;10355114;28;20048;-63
2021/07/19 14:57:20;;;;;;;10.75;6.35;;;;;;;;;;10338966;28;20041;-62
2021/07/19 15:02:18;;;;;;;7.88;6.53;;;;;;;;;;10348073;28;20078;-64
2021/07/19 15:07:18;;;;;;;7.63;6.88;;;;;;;;;;10356736;28;20076;-63
2021/07/19 15:12:18;;;;;;;11.68;7.53;;;;;;;;;;10362416;28;20036;-64
2021/07/19 15:17:16;;;;;;;8.93;7.38;;;;;;;;;;10353662;28;20068;-63
2021/07/19 15:22:14;;;;;;;10.50;6.97;;;;;;;;;;10347522;28;20087;-64
2021/07/19 15:27:13;;;;;;;9.20;7.25;;;;;;;;;;10347420;28;20059;-64
2021/07/19 15:32:15;;;;;;;9.45;8.60;;;;;;;;;;10341295;28;20558;-63
2021/07/19 15:37:13;;;;;;;9.65;6.65;;;;;;;;;;10321019;28;20078;-62
2021/07/19 15:42:12;;;;;;;12.98;7.57;;;;;;;;;;10335450;28;20064;-63
2021/07/19 15:47:10;;;;;;;9.82;7.50;;;;;;;;;;10320976;28;20064;-62
2021/07/19 15:52:10;;;;;;;11.77;7.50;;;;;;;;;;10330612;28;20052;-64
2021/07/19 15:57:09;;;;;;;12.00;8.05;;;;;;;;;;10325339;28;20047;-64
2021/07/19 16:02:08;;;;;;;7.85;7.05;;;;;;;;;;10339092;28;20079;-62
2021/07/19 16:07:07;;;;;;;15.27;7.57;;;;;;;;;;10337928;28;20047;-64
2021/07/19 16:12:27;;;;;;;15.13;10.63;;;;;;;;;;10339712;28;20087;-63
2021/07/19 16:17:25;;;;;;;9.85;7.35;;;;;;;;;;10339725;28;20044;-63
2021/07/19 16:22:24;;;;;;;14.73;6.72;;;;;;;;;;10338306;28;20460;-63
2021/07/19 16:27:22;;;;;;;13.80;7.75;;;;;;;;;;10337529;28;20047;-63
2021/07/19 16:32:22;;;;;;;12.27;6.57;;;;;;;;;;10332352;28;20524;-63
2021/07/19 16:37:20;;;;;;;11.52;6.18;;;;;;;;;;10354898;28;20098;-63
2021/07/19 16:42:19;;;;;;;9.55;6.63;;;;;;;;;;10356901;28;20071;-67
2021/07/19 16:47:17;;;;;;;10.98;6.60;;;;;;;;;;10359009;28;20055;-67
2021/07/19 16:52:17;;;;;;;12.27;9.45;;;;;;;;;;10356733;28;20070;-65
2021/07/19 16:57:16;;;;;;;12.75;7.72;;;;;;;;;;10329890;28;20072;-65
2021/07/19 17:02:15;;;;;;;18.83;9.57;;;;;;;;;;10336329;28;20064;-67
2021/07/19 17:07:13;;;;;;;13.98;8.05;;;;;;;;;;10353360;28;20078;-67
2021/07/19 17:12:13;;;;;;;10.75;7.32;;;;;;;;;;10352972;28;20090;-66
2021/07/19 17:17:12;;;;;;;12.27;7.60;;;;;;;;;;10331483;28;20064;-67
2021/07/19 17:22:10;;;;;;;10.70;7.63;;;;;;;;;;10328814;28;20066;-66
2021/07/19 17:27:09;;;;;;;11.68;7.85;;;;;;;;;;10315422;28;20087;-67
2021/07/19 17:32:09;;;;;;;14.77;6.68;;;;;;;;;;10309912;28;20071;-67
2021/07/19 17:37:08;;;;;;;10.10;6.18;;;;;;;;;;10327073;28;20075;-67
2021/07/19 17:42:06;;;;;;;16.15;7.15;;;;;;;;;;10334244;28;20051;-67
2021/07/19 17:47:05;;;;;;;20.83;6.82;;;;;;;;;;10341501;28;20079;-67
2021/07/19 17:52:05;;;;;;;14.68;6.97;;;;;;;;;;10327381;28;20076;-67
2021/07/19 17:57:05;;;;;;;11.73;6.97;;;;;;;;;;10335390;28;20456;-67
2021/07/19 18:02:03;;;;;;;7.72;6.30;;;;;;;;;;10348043;28;20077;-67
2021/07/19 18:07:02;;;;;;;9.18;6.70;;;;;;;;;;10324852;28;20068;-68
2021/07/19 18:12:01;;;;;;;21.83;7.30;;;;;;;;;;10324359;28;20063;-67
2021/07/19 18:17:00;;;;;;;22.02;8.50;;;;;;;;;;10315968;28;20053;-67
2021/07/19 18:22:07;;;;;;;12.07;7.45;;;;;;;;;;10318284;28;20064;-67
2021/07/19 18:32:23;;;;;;;9.93;7.38;;;;;;;;;;10329444;28;20064;-66
2021/07/19 18:37:21;;;;;;;8.60;6.63;;;;;;;;;;10335653;28;20078;-67
2021/07/19 18:42:22;;;;;;;9.68;6.70;;;;;;;;;;10333909;28;20059;-68
2021/07/19 18:47:21;;;;;;;10.63;6.40;;;;;;;;;;10313891;28;20072;-67
2021/07/19 18:52:19;;;;;;;12.57;6.22;;;;;;;;;;10314040;28;20040;-67
2021/07/19 18:57:20;;;;;;;10.43;6.30;;;;;;;;;;10317127;28;20075;-65
2021/07/19 19:02:20;;;;;;;19.20;6.70;;;;;;;;;;10320591;28;20045;-66
2021/07/19 19:07:19;;;;;;;7.47;6.35;;;;;;;;;;10321945;28;20083;-67
2021/07/19 19:12:19;;;;;;;25.10;6.93;;;;;;;;;;10321697;28;20052;-67
2021/07/19 19:17:17;;;;;;;13.18;6.55;;;;;;;;;;10329446;28;20104;-66
2021/07/19 19:22:17;;;;;;;8.93;6.25;;;;;;;;;;10348618;28;20105;-66
2021/07/19 19:27:15;;;;;;;10.45;6.18;;;;;;;;;;10344105;28;20079;-67
2021/07/19 19:32:13;;;;;;;9.75;6.40;;;;;;;;;;10334996;28;20057;-67
2021/07/19 19:37:13;;;;;;;10.88;6.45;;;;;;;;;;10344493;28;20044;-67
2021/07/19 19:42:12;;;;;;;10.82;6.53;;;;;;;;;;10361821;28;20043;-67
2021/07/19 19:47:11;;;;;;;8.98;6.45;;;;;;;;;;10361973;28;20074;-67
2021/07/19 19:52:09;;;;;;;8.30;6.47;;;;;;;;;;10361377;28;20044;-66
2021/07/19 19:57:08;;;;;;;11.38;6.32;;;;;;;;;;10352950;28;20060;-66
2021/07/19 20:02:08;;;;;;;12.25;6.55;;;;;;;;;;10319757;28;20044;-67
2021/07/19 20:07:07;;;;;;;13.20;6.78;;;;;;;;;;10319714;28;20080;-68
2021/07/19 20:12:06;;;;;;;7.65;6.85;;;;;;;;;;10319600;28;20044;-67
2021/07/19 20:17:06;;;;;;;14.60;6.95;;;;;;;;;;10319305;28;20524;-67
2021/07/19 20:22:05;;;;;;;8.00;6.18;;;;;;;;;;10318906;28;20040;-67
2021/07/19 20:27:05;;;;;;;9.02;6.38;;;;;;;;;;10316340;28;20072;-66
2021/07/19 20:32:04;;;;;;;10.07;7.68;;;;;;;;;;10318170;28;20480;-66
2021/07/19 20:37:02;;;;;;;7.78;6.75;;;;;;;;;;10318063;28;20040;-67
2021/07/19 20:42:03;;;;;;;9.77;7.32;;;;;;;;;;10318220;28;20055;-66
2021/07/19 20:47:01;;;;;;;9.10;6.85;;;;;;;;;;10318114;28;20071;-67
2021/07/19 20:52:00;;;;;;;9.93;6.70;;;;;;;;;;10318027;28;20059;-67
2021/07/19 20:56:58;;;;;;;9.10;6.63;;;;;;;;;;10317674;28;20036;-67
2021/07/19 21:01:58;;;;;;;10.57;6.53;;;;;;;;;;10317199;28;20048;-67
2021/07/19 21:06:56;;;;;;;12.50;8.35;;;;;;;;;;10317299;28;20040;-67
2021/07/19 21:11:55;;;;;;;14.35;7.32;;;;;;;;;;10315322;28;20067;-65
2021/07/19 21:16:53;;;;;;;17.25;8.38;;;;;;;;;;10319053;28;20076;-66
2021/07/19 21:21:53;;;;;;;11.57;7.32;;;;;;;;;;10319024;28;20075;-67
2021/07/19 21:26:52;;;;;;;12.75;6.53;;;;;;;;;;10337432;28;20043;-67
2021/07/19 21:31:51;;;;;;;13.88;6.90;;;;;;;;;;10324008;28;20126;-67
2021/07/19 21:36:49;;;;;;;8.20;7.05;;;;;;;;;;10324119;28;20048;-67
2021/07/19 21:41:49;;;;;;;11.13;9.10;;;;;;;;;;10316533;28;20052;-66
2021/07/19 21:46:47;;;;;;;17.70;8.63;;;;;;;;;;10314910;28;20490;-67
2021/07/19 21:51:46;;;;;;;12.20;8.48;;;;;;;;;;10316484;28;20071;-66
2021/07/19 21:56:44;;;;;;;9.32;7.90;;;;;;;;;;10316365;28;20349;-66
2021/07/19 22:01:46;;;;;;;21.48;9.25;;;;;;;;;;10316269;28;20079;-67
2021/07/19 22:06:45;;;;;;;9.32;7.60;;;;;;;;;;10316141;28;20068;-67
2021/07/19 22:11:43;;;;;;;9.60;6.63;;;;;;;;;;10316034;28;20068;-67
2021/07/19 22:16:42;;;;;;;7.43;6.55;;;;;;;;;;10316250;28;20040;-67
2021/07/19 22:21:41;;;;;;;9.57;6.53;;;;;;;;;;10315300;28;20056;-67
2021/07/19 22:26:43;;;;;;;;;;;;;;;;;;10316100;28;20075;-67
2021/07/19 22:31:42;;;;;;;6.38;5.78;;;;;;;;;;10317582;28;19921;-67
2021/07/19 22:36:42;;;;;;;6.93;5.95;;;;;;;;;;10323244;28;20048;-67
2021/07/19 22:41:41;;;;;;;9.30;5.65;;;;;;;;;;10323386;28;20056;-67
2021/07/19 22:46:40;;;;;;;8.65;6.30;;;;;;;;;;10322722;28;20076;-67
2021/07/19 22:51:38;;;;;;;6.00;5.40;;;;;;;;;;10322137;28;20048;-67
2021/07/19 22:56:38;;;;;;;8.13;7.28;;;;;;;;;;10322399;28;20079;-67
2021/07/19 23:01:36;;;;;;;10.25;5.97;;;;;;;;;;10322656;28;20044;-67
2021/07/19 23:06:35;;;;;;;6.05;5.50;;;;;;;;;;10321881;28;20497;-66
2021/07/19 23:11:33;;;;;;;10.05;5.65;;;;;;;;;;10321801;28;20045;-67
2021/07/19 23:16:33;;;;;;;13.57;5.05;;;;;;;;;;10321599;28;20513;-67
2021/07/19 23:21:31;;;;;;;5.43;4.95;;;;;;;;;;10322447;28;20044;-67
2021/07/19 23:26:29;;;;;;;5.53;5.03;;;;;;;;;;10321095;28;20080;-67
2021/07/19 23:31:28;;;;;;;5.95;5.45;;;;;;;;;;10320700;28;20076;-66
2021/07/19 23:36:27;;;;;;;5.35;4.85;;;;;;;;;;10320824;28;20079;-67
2021/07/19 23:41:26;;;;;;;6.75;5.07;;;;;;;;;;10320325;28;20079;-66
2021/07/19 23:46:24;;;;;;;6.85;5.47;;;;;;;;;;10320015;28;20103;-67
2021/07/19 23:51:23;;;;;;;8.18;5.32;;;;;;;;;;10320245;28;20087;-67
2021/07/19 23:56:22;;;;;;;6.40;5.40;;;;;;;;;;10319979;28;20048;-67
